Whitby, United Kingdom
Current Conditions -  °F | °C
As of 5:50 PM on Monday 24 Nov 2014 (Local Time) from EGNV Reporting Station
Few Clouds Few Clouds  
Wind Chill:   Ceiling: Unl
Heat Index:   Visibility: 6mi
Dew Point:   Wind: 6mph
Humidity: 93%   Direction: 180°S
Pressure: 30.27"   Gusts: NA
Location:  54.48°N, 0.64°W
Report Text: EGNV 241750Z 18005KT 9999 FEW035 04/03 Q1025
Loading
Personal Weather Stations






























Interactive Weather Map New forecast layout! Learn more

10-Day Weather Forecast

Advertisements
Track Severe Weather on mobile